Terminal Aerodrome Forecast
Issued by NWS Bismarck, ND

Home | Current Version | Previous Version | Graphics & Text | Print | Product List | Glossary On
Versions: 1 2 3 4 5 6 7 8 9 10 11 12 13 14 15 16 17 18 19 20 21 22 23 24
000
FTUS43 KBIS 010302 AAC
TAFBIS
TAF AMD
KBIS 010302Z 0103/0124 06007KT P6SM OVC090
     FM010330 VRB20G35KT 4SM TSRA SCT025CB OVC040
     FM010430 08006KT P6SM VCTS BKN035CB OVC070
     FM011000 04006KT P6SM -SHRA BKN030 OVC040
     FM011400 09008KT P6SM SCT030 BKN050=

USA.gov is the U.S. government's official web portal to all federal, state and local government web resources and services.